Time;durP1;ratioP1;P1;durP2;ratioP2;P2;SDS_P1;SDS_P2;PMS_P1;PMS_P2;Temp;Humidity;BMP_temperature;BMP_pressure;BME280_temperature;BME280_humidity;BME280_pressure;Samples;Min_cycle;Max_cycle;Signal;HPM_P1;HPM_P2
2023/09/08 00:00:10;;;;;;;4.00;3.60;;;;;;;27.63;33.22;96552.72;5082676;28;20473;-28
2023/09/08 00:02:35;;;;;;;4.65;3.50;;;;;;;27.49;33.09;96544.34;5082704;28;20016;-28
2023/09/08 00:05:01;;;;;;;4.38;3.65;;;;;;;27.47;33.01;96546.16;5082382;28;20028;-29
2023/09/08 00:07:26;;;;;;;5.05;3.58;;;;;;;27.54;33.26;96551.84;5086273;28;20027;-29
2023/09/08 00:09:51;;;;;;;4.53;3.90;;;;;;;27.43;33.25;96549.28;5086065;28;20020;-28
2023/09/08 00:12:17;;;;;;;4.70;3.95;;;;;;;27.40;33.46;96558.69;5082803;28;20026;-28
2023/09/08 00:14:43;;;;;;;5.10;3.70;;;;;;;27.22;33.75;96545.63;5082603;28;20020;-29
2023/09/08 00:17:08;;;;;;;5.47;3.75;;;;;;;27.35;33.40;96542.09;5082374;28;20103;-28
2023/09/08 00:19:34;;;;;;;5.97;3.90;;;;;;;27.30;33.75;96540.94;5076393;28;20038;-28
2023/09/08 00:22:00;;;;;;;7.85;4.30;;;;;;;27.23;33.89;96544.34;5087138;28;20488;-29
2023/09/08 00:24:25;;;;;;;5.38;3.70;;;;;;;27.38;33.90;96547.34;5082732;28;20031;-28
2023/09/08 00:26:51;;;;;;;4.50;3.65;;;;;;;27.42;33.61;96544.25;5081964;28;20020;-30
2023/09/08 00:29:16;;;;;;;4.93;3.80;;;;;;;27.43;33.92;96540.94;5082084;28;20035;-28
2023/09/08 00:31:42;;;;;;;4.18;3.78;;;;;;;27.38;33.93;96539.00;5089520;28;20530;-28
2023/09/08 00:34:07;;;;;;;4.40;4.03;;;;;;;27.39;33.43;96534.16;5074847;28;20024;-28
2023/09/08 00:36:33;;;;;;;6.18;4.18;;;;;;;27.39;33.86;96546.06;5082974;28;20031;-28
2023/09/08 00:38:58;;;;;;;5.30;3.75;;;;;;;27.40;33.35;96536.44;5073516;28;20025;-30
2023/09/08 00:41:24;;;;;;;5.65;3.95;;;;;;;27.44;33.90;96538.88;5088382;28;20040;-28
2023/09/08 00:43:50;;;;;;;5.10;4.22;;;;;;;27.41;33.79;96535.13;5083867;28;20597;-28
2023/09/08 00:46:16;;;;;;;4.63;4.10;;;;;;;27.35;33.82;96540.06;5085174;28;20027;-28
2023/09/08 00:48:42;;;;;;;6.80;4.30;;;;;;;27.13;34.32;96534.91;5076257;28;20024;-29
2023/09/08 00:51:09;;;;;;;4.57;4.13;;;;;;;27.26;34.14;96534.19;5082297;28;20024;-29
2023/09/08 00:53:36;;;;;;;4.75;4.20;;;;;;;27.12;34.09;96536.19;5080896;28;20039;-29
2023/09/08 00:56:02;;;;;;;4.72;4.28;;;;;;;27.26;34.35;96531.38;5082229;28;20056;-28
2023/09/08 00:58:28;;;;;;;6.30;4.43;;;;;;;27.14;34.34;96531.59;5079034;28;20020;-28
2023/09/08 01:00:54;;;;;;;5.53;4.05;;;;;;;27.11;34.61;96527.09;5083978;28;20031;-28
2023/09/08 01:03:20;;;;;;;4.38;3.97;;;;;;;27.34;34.39;96526.66;5077338;28;20027;-28
2023/09/08 01:05:46;;;;;;;6.07;4.45;;;;;;;27.14;34.27;96530.84;5085314;28;20031;-28
2023/09/08 01:08:13;;;;;;;5.80;4.22;;;;;;;27.20;34.33;96528.69;5076083;28;20024;-28
2023/09/08 01:10:41;;;;;;;6.15;4.28;;;;;;;27.30;34.13;96538.16;5079555;28;20025;-28
2023/09/08 01:13:06;;;;;;;5.60;4.28;;;;;;;27.30;34.47;96538.16;5080435;28;20032;-27
2023/09/08 01:15:32;;;;;;;6.28;4.70;;;;;;;27.09;34.78;96523.34;5081301;28;20013;-28
2023/09/08 01:17:57;;;;;;;7.10;4.05;;;;;;;27.37;34.21;96534.69;5081563;28;20025;-28
2023/09/08 01:20:25;;;;;;;4.72;4.20;;;;;;;27.20;34.82;96539.13;5081628;28;20099;-28
2023/09/08 01:23:11;;;;;;;4.88;4.47;;;;;;;27.35;34.08;96533.72;5080915;28;20028;-28
2023/09/08 01:25:52;;;;;;;6.07;4.30;;;;;;;27.28;34.86;96539.97;5083991;28;20055;-28
2023/09/08 01:28:20;;;;;;;5.18;4.57;;;;;;;27.32;34.85;96541.16;5075880;28;20030;-28
2023/09/08 01:30:45;;;;;;;4.53;4.13;;;;;;;27.24;34.23;96531.91;5081183;28;20020;-29
2023/09/08 01:33:11;;;;;;;5.03;4.45;;;;;;;26.99;35.03;96536.94;5080827;28;20029;-29
2023/09/08 01:35:37;;;;;;;4.90;4.40;;;;;;;27.11;34.90;96531.91;5081684;28;20035;-28
2023/09/08 01:38:02;;;;;;;5.53;4.20;;;;;;;27.21;34.52;96537.81;5083768;28;20043;-29
2023/09/08 01:40:28;;;;;;;7.88;4.57;;;;;;;27.09;35.29;96534.47;5083368;28;20374;-28
2023/09/08 01:42:53;;;;;;;5.63;4.57;;;;;;;27.12;34.83;96527.84;5082782;28;20119;-29
2023/09/08 01:45:19;;;;;;;6.00;4.53;;;;;;;27.17;34.73;96538.16;5085731;28;20031;-28
2023/09/08 01:47:44;;;;;;;5.82;4.50;;;;;;;27.22;34.92;96525.38;5088095;28;20020;-28
2023/09/08 01:50:10;;;;;;;5.47;4.30;;;;;;;27.43;34.82;96524.22;5081234;28;20022;-28
2023/09/08 01:52:35;;;;;;;5.15;4.40;;;;;;;27.43;34.98;96527.00;5081015;28;20021;-28
2023/09/08 01:55:01;;;;;;;5.78;4.60;;;;;;;27.26;35.37;96531.38;5081718;28;20020;-30
2023/09/08 01:57:26;;;;;;;5.82;4.53;;;;;;;27.25;35.21;96524.31;5079048;28;20017;-29
2023/09/08 01:59:52;;;;;;;6.07;4.78;;;;;;;27.34;35.47;96532.97;5080515;28;20059;-28
2023/09/08 02:02:18;;;;;;;6.40;4.80;;;;;;;27.42;35.02;96533.09;5083048;28;20027;-29
2023/09/08 02:04:43;;;;;;;4.78;4.28;;;;;;;27.20;35.17;96533.53;5084254;28;20042;-28
2023/09/08 02:07:09;;;;;;;5.82;4.28;;;;;;;27.24;35.38;96529.13;5082645;28;20024;-29
2023/09/08 02:09:36;;;;;;;5.57;4.97;;;;;;;27.23;35.68;96533.19;5083500;28;20104;-28
2023/09/08 02:12:02;;;;;;;6.25;4.60;;;;;;;27.14;36.04;96520.47;5081848;28;20028;-28
2023/09/08 02:14:28;;;;;;;6.03;4.68;;;;;;;27.34;35.43;96526.66;5083399;28;20111;-28
2023/09/08 02:16:54;;;;;;;8.95;4.53;;;;;;;27.24;35.71;96526.34;5085154;28;20108;-28
2023/09/08 02:19:19;;;;;;;5.07;4.50;;;;;;;27.41;35.41;96531.59;5080864;28;20501;-28
2023/09/08 02:21:45;;;;;;;5.43;4.20;;;;;;;27.14;36.11;96526.03;5086447;28;20016;-28
2023/09/08 02:24:10;;;;;;;4.25;3.85;;;;;;;27.26;36.16;96532.13;5080042;28;20024;-29
2023/09/08 02:26:36;;;;;;;6.40;4.30;;;;;;;27.20;36.34;96534.28;5073347;28;20017;-28
2023/09/08 02:29:01;;;;;;;5.53;4.45;;;;;;;27.29;36.35;96522.72;5072845;28;20028;-28
2023/09/08 02:31:28;;;;;;;7.03;4.63;;;;;;;27.25;36.38;96532.66;5080565;28;20486;-28
2023/09/08 02:33:53;;;;;;;7.40;4.35;;;;;;;27.23;36.41;96522.06;5073198;28;20020;-28
2023/09/08 02:36:25;;;;;;;5.15;4.18;;;;;;;27.15;36.60;96527.53;5079798;28;20020;-28
2023/09/08 02:38:54;;;;;;;4.65;4.07;;;;;;;26.93;37.50;96527.22;5075884;28;20016;-28
2023/09/08 02:41:20;;;;;;;4.40;4.00;;;;;;;27.22;36.69;96531.69;5083407;28;20400;-28
2023/09/08 02:43:46;;;;;;;5.05;4.30;;;;;;;27.11;37.07;96527.09;5077898;28;20052;-28
2023/09/08 02:46:11;;;;;;;5.38;4.68;;;;;;;27.25;37.13;96529.88;5084509;28;20492;-28
2023/09/08 02:48:38;;;;;;;6.90;4.65;;;;;;;27.34;37.17;96529.44;5083936;28;20512;-28
2023/09/08 02:51:03;;;;;;;7.07;4.63;;;;;;;27.09;37.64;96524.09;5086595;28;20039;-28
2023/09/08 02:53:29;;;;;;;6.13;4.60;;;;;;;27.28;36.97;96529.56;5087946;28;20012;-28
2023/09/08 02:55:55;;;;;;;6.18;4.80;;;;;;;27.16;37.34;96523.47;5085439;28;20051;-28
2023/09/08 02:58:21;;;;;;;5.97;4.43;;;;;;;27.33;37.34;96530.72;5083594;28;20130;-28
2023/09/08 03:00:46;;;;;;;5.15;4.65;;;;;;;27.21;37.49;96527.41;5084197;28;20099;-28
2023/09/08 03:03:12;;;;;;;4.90;4.50;;;;;;;27.04;37.55;96524.22;5078589;28;20511;-29
2023/09/08 03:05:37;;;;;;;4.80;4.40;;;;;;;27.13;37.84;96523.78;5086923;28;20070;-27
2023/09/08 03:08:03;;;;;;;5.07;4.40;;;;;;;27.11;37.47;96521.53;5078614;28;20028;-28
2023/09/08 03:10:29;;;;;;;5.43;4.43;;;;;;;27.09;37.52;96523.34;5083635;28;20033;-28
2023/09/08 03:12:54;;;;;;;5.20;4.50;;;;;;;27.15;37.41;96515.66;5083760;28;20023;-27
2023/09/08 03:15:20;;;;;;;5.10;4.60;;;;;;;27.20;37.83;96525.19;5083452;28;20480;-28
2023/09/08 03:17:46;;;;;;;7.55;4.40;;;;;;;27.09;37.78;96512.22;5088153;28;20098;-28
2023/09/08 03:20:13;;;;;;;7.80;4.28;;;;;;;27.00;38.35;96515.44;5085698;28;20424;-27
2023/09/08 03:22:38;;;;;;;5.20;4.32;;;;;;;26.96;38.67;96509.41;5083132;28;20103;-28
2023/09/08 03:25:05;;;;;;;7.95;4.93;;;;;;;26.96;38.56;96520.56;5083462;28;20059;-29
2023/09/08 03:27:30;;;;;;;5.95;4.50;;;;;;;27.13;38.18;96512.66;5084879;28;20089;-28
2023/09/08 03:29:55;;;;;;;4.88;4.47;;;;;;;26.94;38.79;96520.38;5086596;28;20473;-30
2023/09/08 03:32:21;;;;;;;5.10;4.60;;;;;;;26.89;38.55;96533.06;5077410;28;20024;-30
2023/09/08 03:34:46;;;;;;;4.90;4.40;;;;;;;26.79;38.67;96521.59;5086225;28;20021;-28
2023/09/08 03:37:12;;;;;;;5.40;4.80;;;;;;;26.87;38.98;96521.69;5086158;28;20020;-28
2023/09/08 03:39:37;;;;;;;7.18;4.90;;;;;;;26.99;38.60;96520.25;5077878;28;20107;-28
2023/09/08 03:42:03;;;;;;;6.38;4.60;;;;;;;26.97;38.54;96516.50;5082882;28;20532;-29
2023/09/08 03:44:28;;;;;;;5.57;4.50;;;;;;;27.08;38.38;96517.03;5089935;28;20020;-28
2023/09/08 03:46:54;;;;;;;7.65;4.43;;;;;;;26.71;39.11;96526.28;5082792;28;20024;-28
2023/09/08 03:49:20;;;;;;;8.45;4.70;;;;;;;26.94;39.09;96523.16;5082977;28;20027;-28
2023/09/08 03:51:45;;;;;;;4.63;4.20;;;;;;;26.97;39.07;96516.50;5082633;28;20021;-28
2023/09/08 03:54:10;;;;;;;5.78;4.40;;;;;;;26.98;39.10;96524.31;5085631;28;20028;-28
2023/09/08 03:56:36;;;;;;;5.90;4.35;;;;;;;27.02;39.00;96521.97;5086514;28;20026;-28
2023/09/08 03:59:02;;;;;;;6.22;4.72;;;;;;;27.01;38.63;96522.50;5084679;28;20025;-28
2023/09/08 04:01:27;;;;;;;6.30;4.85;;;;;;;27.07;38.90;96514.81;5085937;28;20016;-29
2023/09/08 04:03:53;;;;;;;5.43;4.80;;;;;;;27.02;38.63;96519.19;5085147;28;20031;-28
2023/09/08 04:06:18;;;;;;;5.40;4.78;;;;;;;26.80;39.09;96519.56;5085634;28;20070;-28
2023/09/08 04:08:44;;;;;;;7.45;5.13;;;;;;;26.81;39.04;96521.81;5087713;28;20021;-30
2023/09/08 04:11:09;;;;;;;5.80;4.65;;;;;;;26.93;39.00;96521.66;5083564;28;20039;-29
2023/09/08 04:13:34;;;;;;;7.80;4.60;;;;;;;26.99;38.86;96508.34;5085488;28;20022;-27
2023/09/08 04:16:00;;;;;;;5.50;4.38;;;;;;;26.91;39.39;96507.47;5078484;28;20043;-29
2023/09/08 04:18:25;;;;;;;5.57;4.50;;;;;;;26.89;39.07;96512.81;5089709;28;20107;-28
2023/09/08 04:20:51;;;;;;;6.45;5.07;;;;;;;26.90;39.19;96517.09;5087389;28;20031;-29
2023/09/08 04:23:16;;;;;;;5.40;4.65;;;;;;;26.93;39.07;96516.06;5085045;28;20523;-28
2023/09/08 04:25:42;;;;;;;6.32;4.57;;;;;;;27.01;39.32;96514.91;5075471;28;20016;-28
2023/09/08 04:28:07;;;;;;;4.95;4.50;;;;;;;27.02;38.99;96508.06;5082329;28;20081;-28
2023/09/08 04:30:32;;;;;;;6.05;4.72;;;;;;;26.77;39.77;96503.94;5082135;28;20021;-28
2023/09/08 04:32:58;;;;;;;5.28;4.50;;;;;;;26.86;39.73;96506.28;5074620;28;20477;-28
2023/09/08 04:35:23;;;;;;;4.78;4.38;;;;;;;26.95;39.45;96503.13;5074902;28;20024;-28
2023/09/08 04:37:49;;;;;;;5.55;4.78;;;;;;;26.84;39.70;96498.47;5082560;28;20455;-28
2023/09/08 04:40:14;;;;;;;6.63;4.68;;;;;;;26.82;39.90;96503.09;5080133;28;20020;-28
2023/09/08 04:42:40;;;;;;;5.50;4.97;;;;;;;26.65;39.81;96508.94;5083635;28;20374;-28
2023/09/08 04:45:06;;;;;;;8.48;4.80;;;;;;;26.73;39.71;96515.38;5081365;28;20031;-30
2023/09/08 04:47:31;;;;;;;10.32;4.70;;;;;;;26.90;39.30;96512.28;5082144;28;20025;-28
2023/09/08 04:49:56;;;;;;;7.47;4.40;;;;;;;26.74;39.79;96519.66;5082046;28;20032;-29
2023/09/08 04:52:22;;;;;;;9.02;4.85;;;;;;;26.93;39.46;96510.50;5079585;28;20016;-27
2023/09/08 04:54:47;;;;;;;6.13;4.43;;;;;;;26.90;39.78;96517.84;5084400;28;20026;-28
2023/09/08 04:57:13;;;;;;;5.65;4.65;;;;;;;26.90;39.51;96523.44;5084672;28;20020;-28
2023/09/08 04:59:39;;;;;;;5.82;4.50;;;;;;;26.76;39.98;96531.00;5084773;28;20016;-29
2023/09/08 05:02:04;;;;;;;6.63;4.63;;;;;;;26.68;40.07;96537.72;5075962;28;20055;-28
2023/09/08 05:04:30;;;;;;;5.65;4.82;;;;;;;26.88;39.85;96533.59;5079645;28;20465;-29
2023/09/08 05:06:55;;;;;;;6.38;4.43;;;;;;;26.74;40.44;96532.81;5081107;28;20042;-29
2023/09/08 05:09:21;;;;;;;7.78;4.78;;;;;;;26.75;40.05;96535.06;5081503;28;20508;-28
2023/09/08 05:11:46;;;;;;;6.07;4.50;;;;;;;26.78;40.02;96534.00;5081248;28;20079;-28
2023/09/08 05:14:12;;;;;;;6.25;4.32;;;;;;;26.84;39.95;96536.69;5081410;28;20026;-28
2023/09/08 05:16:46;;;;;;;5.95;4.63;;;;;;;26.78;40.09;96533.25;5077684;28;20012;-28
2023/09/08 05:19:15;;;;;;;6.10;4.60;;;;;;;27.03;39.97;96542.19;5083767;28;20485;-28
2023/09/08 05:21:41;;;;;;;7.68;4.35;;;;;;;26.86;40.01;96533.34;5077100;28;20031;-28
2023/09/08 05:24:08;;;;;;;7.82;4.68;;;;;;;26.79;40.57;96535.50;5084427;28;20477;-29
2023/09/08 05:26:36;;;;;;;6.93;4.47;;;;;;;26.68;40.39;96535.69;5081688;28;20082;-29
2023/09/08 05:29:01;;;;;;;12.80;4.75;;;;;;;26.69;41.08;96537.19;5074217;28;20039;-28
2023/09/08 05:31:26;;;;;;;5.75;4.40;;;;;;;26.74;40.63;96533.56;5081166;28;20036;-28
2023/09/08 05:33:52;;;;;;;8.35;5.68;;;;;;;26.73;40.61;96539.66;5089018;28;20070;-28
2023/09/08 05:36:17;;;;;;;6.18;5.13;;;;;;;26.79;40.47;96540.31;5087526;28;20035;-28
2023/09/08 05:38:43;;;;;;;5.18;4.63;;;;;;;26.71;40.73;96537.41;5073938;28;20016;-29
2023/09/08 05:41:08;;;;;;;6.38;5.32;;;;;;;26.87;40.52;96534.88;5072162;28;20460;-28
2023/09/08 05:43:34;;;;;;;4.93;4.43;;;;;;;26.78;41.36;96539.56;5079688;28;20465;-27
2023/09/08 05:45:59;;;;;;;10.27;5.18;;;;;;;26.79;41.31;96541.06;5080107;28;20020;-28
2023/09/08 05:48:24;;;;;;;5.78;5.18;;;;;;;26.81;40.80;96548.88;5079639;28;20043;-28
2023/09/08 05:50:50;;;;;;;5.47;4.97;;;;;;;26.80;41.01;96542.56;5080101;28;20115;-28
2023/09/08 05:53:15;;;;;;;7.63;4.60;;;;;;;26.87;41.44;96551.56;5079796;28;20110;-28
2023/09/08 05:55:41;;;;;;;8.18;5.05;;;;;;;26.74;41.57;96553.03;5080244;28;20030;-28
2023/09/08 05:58:07;;;;;;;5.28;4.57;;;;;;;26.79;41.39;96557.75;5074896;28;20021;-28
2023/09/08 06:00:33;;;;;;;6.10;4.75;;;;;;;26.88;41.29;96553.06;5082989;28;20365;-28
2023/09/08 06:02:58;;;;;;;9.23;4.85;;;;;;;26.79;41.92;96552.19;5074208;28;20074;-28
2023/09/08 06:05:24;;;;;;;7.18;4.82;;;;;;;26.93;41.61;96555.78;5082956;28;20016;-28
2023/09/08 06:07:49;;;;;;;8.68;4.85;;;;;;;26.73;41.99;96553.56;5076083;28;20024;-28
2023/09/08 06:10:15;;;;;;;5.10;4.35;;;;;;;26.90;41.88;96561.63;5081518;28;20020;-31
2023/09/08 06:12:41;;;;;;;6.63;4.97;;;;;;;27.01;41.05;96562.22;5077742;28;20036;-28
2023/09/08 06:15:07;;;;;;;7.85;4.80;;;;;;;26.74;41.88;96566.94;5079306;28;20017;-28
2023/09/08 06:17:33;;;;;;;5.80;4.75;;;;;;;26.66;41.97;96560.50;5081572;28;20021;-28
2023/09/08 06:19:58;;;;;;;9.25;4.85;;;;;;;26.91;41.75;96563.13;5083036;28;20027;-27
2023/09/08 06:22:23;;;;;;;5.95;4.80;;;;;;;26.91;41.97;96555.53;5080624;28;20106;-28
2023/09/08 06:24:49;;;;;;;6.57;5.00;;;;;;;26.70;42.56;96563.75;5071156;28;20098;-27
2023/09/08 06:27:15;;;;;;;7.72;4.75;;;;;;;26.87;41.83;96562.69;5079150;28;20039;-29
2023/09/08 06:29:43;;;;;;;7.45;4.97;;;;;;;26.99;41.77;96561.25;5074285;28;20043;-28
2023/09/08 06:32:09;;;;;;;6.35;4.75;;;;;;;26.93;41.77;96566.16;5083744;28;20047;-29
2023/09/08 06:34:35;;;;;;;7.75;4.97;;;;;;;26.98;41.65;96573.66;5079955;28;20525;-28
2023/09/08 06:37:01;;;;;;;6.07;5.40;;;;;;;26.92;41.48;96575.78;5078674;28;20035;-28
2023/09/08 06:39:26;;;;;;;9.43;4.90;;;;;;;26.90;41.93;96576.28;5086331;28;20028;-28
2023/09/08 06:41:52;;;;;;;8.00;4.45;;;;;;;26.99;41.24;96575.16;5037814;28;1197703;-28
2023/09/08 06:44:17;;;;;;;7.13;4.68;;;;;;;27.01;41.76;96564.25;5085327;28;20024;-28
2023/09/08 06:46:43;;;;;;;8.15;4.90;;;;;;;27.08;41.18;96572.69;5074407;28;20024;-28
2023/09/08 06:49:08;;;;;;;7.07;5.47;;;;;;;27.02;41.56;96579.66;5076069;28;20021;-28
2023/09/08 06:51:33;;;;;;;7.60;4.85;;;;;;;27.06;41.19;96578.06;5083360;28;20092;-28
2023/09/08 06:54:00;;;;;;;6.85;5.28;;;;;;;27.18;41.23;96578.63;5075348;28;20232;-27
2023/09/08 06:56:25;;;;;;;5.25;4.75;;;;;;;27.17;41.35;96575.09;5083408;28;20377;-28
2023/09/08 06:58:51;;;;;;;5.55;4.78;;;;;;;27.20;41.31;96576.03;5081950;28;20017;-28
2023/09/08 07:01:17;;;;;;;5.97;4.90;;;;;;;27.09;41.82;96573.44;5083453;28;20020;-28
2023/09/08 07:03:43;;;;;;;10.07;6.05;;;;;;;27.07;41.76;96570.47;5084492;28;20017;-28
2023/09/08 07:06:08;;;;;;;5.80;5.18;;;;;;;27.17;41.59;96574.34;5080311;28;20020;-28
2023/09/08 07:08:34;;;;;;;6.38;5.00;;;;;;;27.19;41.63;96569.00;5076756;28;20016;-28
2023/09/08 07:10:59;;;;;;;8.13;5.18;;;;;;;27.27;41.09;96574.66;5075460;28;20471;-28
2023/09/08 07:20:17;;;;;;;6.85;4.85;;;;;;;27.08;41.54;96583.09;5079020;28;20123;-28
2023/09/08 07:22:43;;;;;;;10.00;5.45;;;;;;;27.21;41.21;96574.00;5079893;28;20020;-28
2023/09/08 07:25:09;;;;;;;5.22;4.57;;;;;;;27.36;40.45;96583.34;5080024;28;20091;-27
2023/09/08 07:27:35;;;;;;;5.43;4.72;;;;;;;27.37;40.75;96573.69;5081381;28;20070;-27
2023/09/08 07:30:00;;;;;;;4.78;4.28;;;;;;;27.46;40.56;96572.50;5081452;28;20017;-29
2023/09/08 07:32:25;;;;;;;7.32;4.75;;;;;;;27.51;40.10;96580.75;5084013;28;20024;-29
2023/09/08 07:34:54;;;;;;;5.35;4.65;;;;;;;27.57;40.70;96589.03;5078656;28;20020;-27
2023/09/08 07:37:23;;;;;;;8.63;4.93;;;;;;;27.52;40.56;96585.06;5086840;28;20374;-27
2023/09/08 07:39:50;;;;;;;5.35;4.82;;;;;;;27.65;40.13;96589.91;5077926;28;20151;-28
2023/09/08 07:42:16;;;;;;;5.88;4.80;;;;;;;27.60;39.94;96598.34;5088102;28;20063;-28
2023/09/08 07:44:41;;;;;;;5.82;4.65;;;;;;;27.60;39.96;96598.34;5075973;28;20458;-28
2023/09/08 07:47:07;;;;;;;6.28;4.93;;;;;;;27.66;40.05;96591.41;5086335;28;20016;-28
2023/09/08 07:49:36;;;;;;;6.47;4.60;;;;;;;27.49;40.33;96593.72;5079478;28;20025;-27
2023/09/08 07:52:04;;;;;;;8.20;4.70;;;;;;;27.67;39.72;96592.91;5083153;28;20048;-28
2023/09/08 07:54:30;;;;;;;6.25;5.15;;;;;;;27.76;40.04;96594.50;5083322;28;20016;-27
2023/09/08 07:56:55;;;;;;;5.85;4.40;;;;;;;27.73;39.93;96595.56;5083527;28;20028;-28
2023/09/08 07:59:21;;;;;;;7.60;5.00;;;;;;;27.84;39.75;96595.31;5082530;28;20024;-28
2023/09/08 08:01:46;;;;;;;6.25;4.47;;;;;;;27.92;39.26;96606.59;5082966;28;20492;-28
2023/09/08 08:04:12;;;;;;;7.22;5.00;;;;;;;27.88;40.07;96610.44;5076167;28;20028;-29
2023/09/08 08:06:38;;;;;;;9.52;5.00;;;;;;;27.98;39.58;96605.16;5085695;28;20030;-28
2023/09/08 08:09:03;;;;;;;5.28;4.65;;;;;;;27.93;39.69;96610.88;5084642;28;20406;-28
2023/09/08 08:11:29;;;;;;;5.07;4.43;;;;;;;27.91;39.57;96610.66;5078428;28;20403;-27
2023/09/08 08:13:56;;;;;;;5.25;4.32;;;;;;;27.95;39.24;96600.66;5085553;28;20024;-28
2023/09/08 08:16:22;;;;;;;5.90;4.80;;;;;;;28.12;39.02;96597.53;5082975;28;20052;-28
2023/09/08 08:18:48;;;;;;;6.43;4.90;;;;;;;28.06;39.13;96606.03;5079587;28;20418;-28
2023/09/08 08:21:13;;;;;;;9.73;4.88;;;;;;;28.12;39.15;96608.69;5077306;28;20033;-29
2023/09/08 08:23:38;;;;;;;5.78;4.50;;;;;;;28.18;39.11;96607.31;5089900;28;20033;-28
2023/09/08 08:26:04;;;;;;;5.60;4.70;;;;;;;27.92;39.67;96607.34;5088632;28;20024;-28
2023/09/08 08:28:30;;;;;;;7.63;4.82;;;;;;;28.13;39.43;96616.50;5083444;28;20020;-27
2023/09/08 08:30:56;;;;;;;6.35;4.70;;;;;;;28.12;39.43;96608.69;5086629;28;20026;-28
2023/09/08 08:33:22;;;;;;;5.70;4.45;;;;;;;28.06;39.61;96608.06;5083904;28;20024;-29
2023/09/08 08:35:51;;;;;;;6.38;4.88;;;;;;;28.19;39.37;96606.00;5085244;28;20020;-28
2023/09/08 08:38:17;;;;;;;7.95;4.70;;;;;;;28.17;38.78;96608.56;5085479;28;20035;-28
2023/09/08 08:40:43;;;;;;;6.90;5.03;;;;;;;28.20;38.89;96603.97;5082170;28;20020;-28
2023/09/08 08:43:08;;;;;;;7.60;5.55;;;;;;;28.31;38.74;96603.00;5085584;28;20427;-28
2023/09/08 08:45:35;;;;;;;5.43;4.75;;;;;;;28.32;38.60;96599.63;5085128;28;20453;-29
2023/09/08 08:48:02;;;;;;;6.78;5.30;;;;;;;28.31;39.14;96595.38;5083969;28;20028;-28
2023/09/08 08:50:29;;;;;;;9.05;4.90;;;;;;;28.25;39.30;96594.72;5086404;28;20424;-29
2023/09/08 08:52:54;;;;;;;9.10;4.88;;;;;;;28.20;39.31;96598.38;5075280;28;20026;-28
2023/09/08 08:55:20;;;;;;;6.63;4.82;;;;;;;28.33;38.73;96600.38;5080931;28;20452;-28
2023/09/08 08:57:46;;;;;;;5.40;4.55;;;;;;;28.29;38.57;96597.94;5088691;28;20020;-28
2023/09/08 09:00:12;;;;;;;7.78;4.95;;;;;;;28.20;38.83;96604.72;5082411;28;20424;-27
2023/09/08 09:02:43;;;;;;;6.65;4.55;;;;;;;28.29;38.79;96611.16;5081545;28;20466;-27
2023/09/08 09:05:12;;;;;;;5.75;4.70;;;;;;;28.32;38.97;96604.47;5082192;28;20024;-28
2023/09/08 09:07:39;;;;;;;5.65;4.70;;;;;;;28.15;39.52;96610.41;5079750;28;20028;-28
2023/09/08 09:10:07;;;;;;;6.32;5.05;;;;;;;28.30;38.95;96599.44;5081646;28;20408;-28
2023/09/08 09:12:33;;;;;;;5.55;5.05;;;;;;;28.27;39.02;96605.34;5074401;28;20074;-28
2023/09/08 09:15:00;;;;;;;5.97;4.80;;;;;;;28.32;38.85;96598.88;5081666;28;20107;-27
2023/09/08 09:17:25;;;;;;;6.13;4.95;;;;;;;28.29;38.96;96600.00;5083476;28;20465;-27
2023/09/08 09:20:20;;;;;;;10.43;4.85;;;;;;;28.36;38.66;96610.47;5084591;28;20020;-28
2023/09/08 09:22:47;;;;;;;6.13;5.30;;;;;;;28.37;38.93;96598.03;5077670;28;20027;-27
2023/09/08 09:25:26;;;;;;;8.52;5.15;;;;;;;28.40;38.67;96594.16;5075420;28;20377;-28
2023/09/08 09:28:00;;;;;;;8.32;5.53;;;;;;;28.36;38.95;96602.09;5081471;28;20386;-27
2023/09/08 09:30:26;;;;;;;7.90;5.22;;;;;;;28.42;38.84;96599.94;5081114;28;20104;-28
2023/09/08 09:33:02;;;;;;;7.55;4.80;;;;;;;28.26;39.20;96601.81;5080836;28;20025;-27
2023/09/08 09:35:47;;;;;;;12.27;5.07;;;;;;;28.43;39.09;96598.66;5073235;28;20107;-28
2023/09/08 09:38:13;;;;;;;6.57;5.07;;;;;;;28.41;38.90;96590.06;5080842;28;20017;-27
2023/09/08 09:40:42;;;;;;;10.88;5.95;;;;;;;28.41;39.20;96601.97;5081195;28;20099;-27
2023/09/08 09:43:09;;;;;;;7.70;4.80;;;;;;;28.43;39.34;96595.88;5085109;28;20031;-28
2023/09/08 09:45:36;;;;;;;7.20;5.05;;;;;;;28.54;39.16;96601.19;5083175;28;20053;-28
2023/09/08 09:48:06;;;;;;;7.53;4.57;;;;;;;28.52;38.91;96590.56;5080578;28;20025;-28
2023/09/08 09:50:35;;;;;;;7.78;5.55;;;;;;;28.48;39.18;96595.72;5079740;28;20037;-28
2023/09/08 09:53:07;;;;;;;7.50;5.28;;;;;;;28.65;38.84;96594.59;5082881;28;20052;-27
2023/09/08 09:55:33;;;;;;;6.17;5.10;;;;;;;28.52;39.23;96590.56;5084252;28;20027;-27
2023/09/08 09:58:02;;;;;;;7.03;5.20;;;;;;;28.56;39.23;96590.22;5075674;28;20277;-28
2023/09/08 10:00:28;;;;;;;7.10;5.07;;;;;;;28.58;38.68;96585.59;5083685;28;20100;-28
2023/09/08 10:02:55;;;;;;;11.05;5.03;;;;;;;28.59;38.26;96584.28;5082880;28;20056;-27
2023/09/08 10:05:20;;;;;;;6.05;4.80;;;;;;;28.59;38.20;96589.13;5076113;28;20066;-28
2023/09/08 10:07:48;;;;;;;6.22;4.60;;;;;;;28.64;38.27;96587.50;5077725;28;20443;-29
2023/09/08 10:10:14;;;;;;;7.60;5.13;;;;;;;28.64;38.19;96591.03;5081074;28;20400;-28
2023/09/08 10:12:45;;;;;;;5.82;4.70;;;;;;;28.56;38.03;96582.59;5078954;28;20024;-28
2023/09/08 10:15:11;;;;;;;6.95;4.80;;;;;;;28.55;38.05;96583.16;5080618;28;20101;-28
2023/09/08 10:17:37;;;;;;;7.78;5.22;;;;;;;28.62;38.29;96593.63;5080525;28;20012;-28
2023/09/08 10:20:10;;;;;;;6.40;5.00;;;;;;;28.57;37.92;96586.13;5080180;28;20032;-27
2023/09/08 10:22:38;;;;;;;10.55;5.82;;;;;;;28.65;37.60;96589.75;5080594;28;20408;-27
2023/09/08 10:25:06;;;;;;;6.20;5.18;;;;;;;28.63;37.75;96595.13;5079424;28;20046;-27
2023/09/08 10:27:32;;;;;;;9.07;5.82;;;;;;;28.73;37.04;96587.03;5073795;28;20094;-28
2023/09/08 10:30:01;;;;;;;10.55;5.40;;;;;;;28.74;37.19;96585.72;5083515;28;20028;-28
2023/09/08 10:32:28;;;;;;;11.18;5.60;;;;;;;28.73;37.16;96593.34;5082563;28;20474;-27
2023/09/08 10:34:54;;;;;;;7.35;5.38;;;;;;;28.79;37.26;96591.22;5078802;28;20028;-27
2023/09/08 10:37:20;;;;;;;6.05;5.45;;;;;;;28.77;37.13;96582.59;5073272;28;20025;-28
2023/09/08 10:39:46;;;;;;;5.85;5.35;;;;;;;28.81;36.88;96591.41;5087870;28;20024;-28
2023/09/08 10:42:17;;;;;;;6.55;5.00;;;;;;;28.81;36.70;96585.06;5077540;28;20100;-28
2023/09/08 10:44:51;;;;;;;7.35;5.72;;;;;;;28.81;36.62;96583.03;5074920;28;20077;-28
2023/09/08 10:47:30;;;;;;;5.20;4.70;;;;;;;28.77;36.81;96582.59;5077019;28;20079;-29
2023/09/08 10:49:57;;;;;;;6.20;5.13;;;;;;;28.87;36.61;96583.66;5087779;28;20064;-28
2023/09/08 10:52:23;;;;;;;6.57;5.30;;;;;;;28.94;36.48;96580.16;5079905;28;20351;-28
2023/09/08 10:54:51;;;;;;;6.85;5.43;;;;;;;28.87;36.94;96582.91;5080063;28;20107;-28
2023/09/08 10:57:20;;;;;;;6.97;5.68;;;;;;;28.88;36.88;96587.94;5083638;28;20031;-27
2023/09/08 10:59:56;;;;;;;5.32;4.68;;;;;;;28.89;37.03;96578.28;5075037;28;20417;-28
2023/09/08 11:02:32;;;;;;;6.80;5.53;;;;;;;28.92;36.80;96588.34;5083843;28;20447;-28
2023/09/08 11:04:58;;;;;;;6.15;5.53;;;;;;;28.92;36.37;96579.22;5086373;28;20028;-28
2023/09/08 11:07:25;;;;;;;6.60;4.80;;;;;;;28.92;36.30;96571.59;5080122;28;20026;-27
2023/09/08 11:09:50;;;;;;;11.82;6.13;;;;;;;29.01;36.41;96572.41;5080673;28;20024;-29
2023/09/08 11:12:16;;;;;;;7.22;5.40;;;;;;;28.88;36.44;96579.56;5084839;28;20538;-28
2023/09/08 11:14:43;;;;;;;7.60;5.35;;;;;;;29.00;36.11;96573.69;5087193;28;20020;-27
2023/09/08 11:17:09;;;;;;;8.70;5.40;;;;;;;29.05;36.12;96575.59;5078463;28;20409;-27
2023/09/08 11:20:08;;;;;;;8.40;5.35;;;;;;;29.09;35.89;96562.03;5083763;28;20039;-28
2023/09/08 11:22:34;;;;;;;6.57;4.80;;;;;;;28.99;35.94;96567.34;5080426;28;20039;-28
2023/09/08 11:25:04;;;;;;;5.43;4.93;;;;;;;28.98;35.83;96565.84;5083404;28;20028;-29
2023/09/08 11:27:30;;;;;;;5.45;4.82;;;;;;;29.06;35.84;96571.50;5083315;28;20024;-28
2023/09/08 11:29:56;;;;;;;5.50;5.00;;;;;;;29.06;35.90;96572.25;5083124;28;20031;-28
2023/09/08 11:32:22;;;;;;;6.43;5.10;;;;;;;29.07;35.57;96567.41;5083118;28;20107;-29
2023/09/08 11:34:48;;;;;;;5.68;5.10;;;;;;;29.10;35.54;96563.53;5078915;28;20125;-28
2023/09/08 11:37:16;;;;;;;5.95;4.90;;;;;;;29.11;35.66;96560.19;5087082;28;20057;-29